createdAt,value
2018-12-25T00:01:15.422Z,75.72
2018-12-25T00:03:44.317Z,75.96
2018-12-25T00:06:13.215Z,76.23
2018-12-25T00:08:42.139Z,76.18
2018-12-25T00:11:11.025Z,75.91
2018-12-25T00:13:39.900Z,74.78
2018-12-25T00:16:08.857Z,76.04
2018-12-25T00:18:37.729Z,76.21
2018-12-25T00:21:06.727Z,75.79
2018-12-25T00:23:35.593Z,75.45
2018-12-25T00:26:04.496Z,75.35
2018-12-25T00:28:33.384Z,75.26
2018-12-25T00:31:02.257Z,75.59
2018-12-25T00:33:31.180Z,75.54
2018-12-25T00:36:00.062Z,75.73
2018-12-25T00:38:28.990Z,75.55
2018-12-25T00:40:57.882Z,75.68
2018-12-25T00:43:26.784Z,75.24
2018-12-25T00:45:55.724Z,75.09
2018-12-25T00:48:24.707Z,74.68
2018-12-25T00:50:53.604Z,75.09
2018-12-25T00:53:22.491Z,74.87
2018-12-25T00:55:51.409Z,75.09
2018-12-25T00:58:20.275Z,75.22
2018-12-25T01:00:49.186Z,75.13
2018-12-25T01:03:18.124Z,75.38
2018-12-25T01:05:46.975Z,75.02
2018-12-25T01:08:15.834Z,75.17
2018-12-25T01:10:44.762Z,75.05
2018-12-25T01:13:13.652Z,76.12
2018-12-25T01:15:42.535Z,75.90
2018-12-25T01:18:11.422Z,73.33
2018-12-25T01:20:40.318Z,74.65
2018-12-25T01:23:09.201Z,75.06
2018-12-25T01:25:38.066Z,75.73
2018-12-25T01:28:07.011Z,75.42
2018-12-25T01:30:35.901Z,75.30
2018-12-25T01:33:04.808Z,74.62
2018-12-25T01:35:33.680Z,74.53
2018-12-25T01:38:02.572Z,74.07
2018-12-25T01:40:31.490Z,73.88
2018-12-25T01:43:00.368Z,73.22
2018-12-25T01:45:29.258Z,73.41
2018-12-25T01:47:58.125Z,73.54
2018-12-25T01:50:27.019Z,73.80
2018-12-25T01:52:55.932Z,73.45
2018-12-25T01:55:24.833Z,72.93
2018-12-25T01:57:53.731Z,72.29
2018-12-25T02:00:22.641Z,72.20
2018-12-25T02:02:51.520Z,72.29
2018-12-25T02:05:20.432Z,71.35
2018-12-25T02:07:49.307Z,71.55
2018-12-25T02:10:18.182Z,71.66
2018-12-25T02:12:47.080Z,69.32
2018-12-25T02:15:15.989Z,70.60
2018-12-25T02:17:44.872Z,70.62
2018-12-25T02:20:13.747Z,71.13
2018-12-25T02:22:42.635Z,71.08
2018-12-25T02:25:11.526Z,70.41
2018-12-25T02:27:40.472Z,71.06
2018-12-25T02:30:09.311Z,70.74
2018-12-25T02:32:38.214Z,71.14
2018-12-25T02:35:07.129Z,71.16
2018-12-25T02:37:36.032Z,71.03
2018-12-25T02:40:05.103Z,71.64
2018-12-25T02:42:33.984Z,71.99
2018-12-25T02:45:02.900Z,71.91
2018-12-25T02:47:31.805Z,69.23
2018-12-25T02:50:00.708Z,70.45
2018-12-25T02:52:29.587Z,69.94
2018-12-25T02:54:58.501Z,70.45
2018-12-25T02:57:27.393Z,70.26
2018-12-25T02:59:56.286Z,70.26
2018-12-25T03:02:25.148Z,70.16
2018-12-25T03:04:54.049Z,70.58
2018-12-25T03:07:22.982Z,69.63
2018-12-25T03:09:51.955Z,70.03
2018-12-25T03:12:20.877Z,70.28
2018-12-25T03:14:49.786Z,69.33
2018-12-25T03:17:18.667Z,68.56
2018-12-25T03:19:47.590Z,68.89
2018-12-25T03:22:16.462Z,67.25
2018-12-25T03:24:45.388Z,68.44
2018-12-25T03:27:14.246Z,68.69
2018-12-25T03:29:43.142Z,68.57
2018-12-25T03:32:12.086Z,68.45
2018-12-25T03:34:40.986Z,68.69
2018-12-25T03:37:09.855Z,68.60
2018-12-25T03:39:38.723Z,68.64
2018-12-25T03:42:07.606Z,68.83
2018-12-25T03:44:36.507Z,69.01
2018-12-25T03:47:05.387Z,69.03
2018-12-25T03:49:34.277Z,68.96
2018-12-25T03:52:03.211Z,69.59
2018-12-25T03:54:32.087Z,69.93
2018-12-25T03:57:00.986Z,69.64
2018-12-25T03:59:29.850Z,69.73
2018-12-25T04:01:58.755Z,70.21
2018-12-25T04:04:27.654Z,70.26
2018-12-25T04:06:56.553Z,69.97
2018-12-25T04:09:25.497Z,69.84
2018-12-25T04:11:54.404Z,70.03
2018-12-25T04:14:23.288Z,69.88
2018-12-25T04:16:52.188Z,70.24
2018-12-25T04:19:21.080Z,69.93
2018-12-25T04:21:49.954Z,70.22
2018-12-25T04:24:18.879Z,70.22
2018-12-25T04:26:47.748Z,69.99
2018-12-25T04:29:16.703Z,70.59
2018-12-25T04:31:45.632Z,70.29
2018-12-25T04:34:14.521Z,70.52
2018-12-25T04:36:43.438Z,70.34
2018-12-25T04:39:12.356Z,70.31
2018-12-25T04:41:41.287Z,69.98
2018-12-25T04:44:10.181Z,69.84
2018-12-25T04:46:39.056Z,69.92
2018-12-25T04:49:07.957Z,69.15
2018-12-25T04:51:36.887Z,69.19
2018-12-25T04:54:05.809Z,68.82
2018-12-25T04:56:34.667Z,69.14
2018-12-25T04:59:03.577Z,68.26
2018-12-25T05:01:32.475Z,68.12
2018-12-25T05:04:01.376Z,67.90
2018-12-25T05:06:30.246Z,68.63
2018-12-25T05:08:59.143Z,68.18
2018-12-25T05:11:28.009Z,68.09
2018-12-25T05:13:56.907Z,68.61
2018-12-25T05:16:25.819Z,68.62
2018-12-25T05:18:54.733Z,68.87
2018-12-25T05:21:23.611Z,68.86
2018-12-25T05:23:52.483Z,68.86
2018-12-25T05:26:21.375Z,68.02
2018-12-25T05:28:50.309Z,68.41
2018-12-25T05:31:19.228Z,68.00
2018-12-25T05:33:48.139Z,69.14
2018-12-25T05:36:17.049Z,68.76
2018-12-25T05:38:45.964Z,69.22
2018-12-25T05:41:14.888Z,69.55
2018-12-25T05:43:43.798Z,69.79
2018-12-25T05:46:12.673Z,70.06
2018-12-25T05:48:41.628Z,70.50
2018-12-25T05:51:10.443Z,70.14
2018-12-25T05:53:39.334Z,70.17
2018-12-25T05:56:08.226Z,70.31
2018-12-25T05:58:37.131Z,70.94
2018-12-25T06:01:06.012Z,71.13
2018-12-25T06:03:34.903Z,71.16
2018-12-25T06:06:03.780Z,70.90
2018-12-25T06:08:32.680Z,71.53
2018-12-25T06:11:01.553Z,71.74
2018-12-25T06:13:30.449Z,72.13
2018-12-25T06:15:59.327Z,71.98
2018-12-25T06:18:28.237Z,72.27
2018-12-25T06:20:57.126Z,72.36
2018-12-25T06:23:26.020Z,72.46
2018-12-25T06:25:54.921Z,72.12
2018-12-25T06:28:23.807Z,71.99
2018-12-25T06:30:52.697Z,72.47
2018-12-25T06:33:21.594Z,72.74
2018-12-25T06:35:50.520Z,72.98
2018-12-25T06:38:19.378Z,72.61
2018-12-25T06:40:48.276Z,73.03
2018-12-25T06:43:17.173Z,73.16
2018-12-25T06:45:46.089Z,73.07
2018-12-25T06:48:14.976Z,73.42
2018-12-25T06:50:43.844Z,73.57
2018-12-25T06:53:12.770Z,73.42
2018-12-25T06:55:41.659Z,73.09
2018-12-25T06:58:10.523Z,73.38
2018-12-25T07:00:39.414Z,73.81
2018-12-25T07:03:08.353Z,73.23
2018-12-25T07:05:37.254Z,73.33
2018-12-25T07:08:06.245Z,73.64
2018-12-25T07:10:35.168Z,74.09
2018-12-25T07:13:04.040Z,73.66
2018-12-25T07:15:33.541Z,73.96
2018-12-25T07:18:01.852Z,74.15
2018-12-25T07:20:30.745Z,73.88
2018-12-25T07:22:59.616Z,73.99
2018-12-25T07:25:28.537Z,73.85
2018-12-25T07:27:57.417Z,73.75
2018-12-25T07:30:26.310Z,73.74
2018-12-25T07:32:55.300Z,73.52
2018-12-25T07:35:24.194Z,73.72
2018-12-25T07:37:53.058Z,73.86
2018-12-25T07:40:21.954Z,73.89
2018-12-25T07:42:50.837Z,74.32
2018-12-25T07:45:19.727Z,74.42
2018-12-25T07:47:48.665Z,73.98
2018-12-25T07:50:17.560Z,74.25
2018-12-25T07:52:46.456Z,74.29
2018-12-25T07:55:15.331Z,74.11
2018-12-25T07:57:44.222Z,72.57
2018-12-25T08:00:13.156Z,73.41
2018-12-25T08:02:42.060Z,71.57
2018-12-25T08:05:11.055Z,71.11
2018-12-25T08:07:39.967Z,72.68
2018-12-25T08:10:08.927Z,72.82
2018-12-25T08:12:37.843Z,72.51
2018-12-25T08:15:06.882Z,72.57
2018-12-25T08:17:35.775Z,72.91
2018-12-25T08:20:05.177Z,72.62
2018-12-25T08:22:33.978Z,72.21
2018-12-25T08:25:02.856Z,72.06
2018-12-25T08:27:31.750Z,72.37
2018-12-25T08:30:00.663Z,72.30
2018-12-25T08:32:29.568Z,72.08
2018-12-25T08:34:58.448Z,72.12
2018-12-25T08:37:27.347Z,72.24
2018-12-25T08:39:56.230Z,72.20
2018-12-25T08:42:25.166Z,72.34
2018-12-25T08:44:54.037Z,72.55
2018-12-25T08:47:22.931Z,72.54
2018-12-25T08:49:51.806Z,72.76
2018-12-25T08:52:20.678Z,72.59
2018-12-25T08:54:49.581Z,72.67
2018-12-25T08:57:18.617Z,72.40
2018-12-25T08:59:47.536Z,72.20
2018-12-25T09:02:16.412Z,72.25
2018-12-25T09:04:45.290Z,71.96
2018-12-25T09:07:14.174Z,72.04
2018-12-25T09:09:43.090Z,71.37
2018-12-25T09:12:11.959Z,71.68
2018-12-25T09:14:40.839Z,71.30
2018-12-25T09:17:09.778Z,70.39
2018-12-25T09:19:38.691Z,70.44
2018-12-25T09:22:07.766Z,70.01
2018-12-25T09:24:36.624Z,70.04
2018-12-25T09:27:05.668Z,68.28
2018-12-25T09:29:34.527Z,69.34
2018-12-25T09:32:03.439Z,69.08
2018-12-25T09:34:32.348Z,68.64
2018-12-25T09:37:01.295Z,68.69
2018-12-25T09:39:30.165Z,68.29
2018-12-25T09:41:59.051Z,68.15
2018-12-25T09:44:27.946Z,68.07
2018-12-25T09:46:59.923Z,67.77
2018-12-25T09:49:28.835Z,67.76
2018-12-25T09:51:57.687Z,67.73
2018-12-25T09:54:26.569Z,66.06
2018-12-25T09:56:55.452Z,66.45
2018-12-25T09:59:24.350Z,65.70
2018-12-25T10:01:53.233Z,64.77
2018-12-25T10:04:22.124Z,64.31
2018-12-25T10:06:50.999Z,63.15
2018-12-25T10:09:26.320Z,62.15
2018-12-25T10:11:55.199Z,62.35
2018-12-25T10:14:24.087Z,60.73
2018-12-25T10:16:52.958Z,60.41
2018-12-25T10:19:21.897Z,60.57
2018-12-25T10:21:50.778Z,61.21
2018-12-25T10:24:19.657Z,58.51
2018-12-25T10:26:48.585Z,57.25
2018-12-25T10:29:17.473Z,51.44
2018-12-25T10:31:46.391Z,48.53
2018-12-25T10:34:15.332Z,47.73
2018-12-25T10:36:44.247Z,47.77
2018-12-25T10:39:13.190Z,44.79
2018-12-25T10:42:18.043Z,47.53
2018-12-25T10:44:46.963Z,47.34
2018-12-25T10:47:15.856Z,46.73
2018-12-25T10:49:44.783Z,50.28
2018-12-25T10:52:13.757Z,48.31
2018-12-25T10:54:42.615Z,47.34
2018-12-25T10:57:11.550Z,50.09
2018-12-25T10:59:40.458Z,51.33
2018-12-25T11:02:09.497Z,48.94
2018-12-25T11:04:38.401Z,49.25
2018-12-25T11:07:07.443Z,51.02
2018-12-25T11:09:36.341Z,52.65
2018-12-25T11:12:05.458Z,54.61
2018-12-25T11:14:34.251Z,51.40
2018-12-25T11:17:03.191Z,46.84
2018-12-25T11:19:32.105Z,48.21
2018-12-25T11:22:01.126Z,51.00
2018-12-25T11:24:30.046Z,51.47
2018-12-25T11:26:58.982Z,53.39
2018-12-25T11:29:27.888Z,52.35
2018-12-25T11:31:56.809Z,50.85
2018-12-25T11:34:25.697Z,45.90
2018-12-25T11:36:54.880Z,45.69
2018-12-25T11:39:23.780Z,48.06
2018-12-25T11:41:52.690Z,49.06
2018-12-25T11:44:28.081Z,50.50
2018-12-25T11:46:56.911Z,52.19
2018-12-25T11:49:25.808Z,53.16
2018-12-25T11:51:54.704Z,54.63
2018-12-25T11:54:23.616Z,56.14
2018-12-25T11:56:52.521Z,56.51
2018-12-25T11:59:21.405Z,57.34
2018-12-25T12:01:50.336Z,58.01
2018-12-25T12:04:19.203Z,58.72
2018-12-25T12:06:48.304Z,59.27
2018-12-25T12:09:17.173Z,59.57
2018-12-25T12:11:46.094Z,59.80
2018-12-25T12:14:14.969Z,59.91
2018-12-25T12:16:43.837Z,60.70
2018-12-25T12:19:12.757Z,60.55
2018-12-25T12:21:41.645Z,60.23
2018-12-25T12:24:10.543Z,59.82
2018-12-25T12:26:39.423Z,59.91
2018-12-25T12:29:08.464Z,59.78
2018-12-25T12:31:37.364Z,59.86
2018-12-25T12:34:06.305Z,59.80
2018-12-25T12:36:35.181Z,60.28
2018-12-25T12:39:05.702Z,60.76
2018-12-25T12:41:34.550Z,61.18
2018-12-25T12:44:03.470Z,61.59
2018-12-25T12:46:32.330Z,62.06
2018-12-25T12:49:01.217Z,62.44
2018-12-25T12:51:30.199Z,62.52
2018-12-25T12:53:59.158Z,61.63
2018-12-25T12:56:27.972Z,63.00
2018-12-25T12:58:56.848Z,63.63
2018-12-25T13:01:25.785Z,63.10
2018-12-25T13:03:54.674Z,63.84
2018-12-25T13:06:23.574Z,63.59
2018-12-25T13:08:52.457Z,64.22
2018-12-25T13:11:21.363Z,64.01
2018-12-25T13:13:50.247Z,63.85
2018-12-25T13:16:19.129Z,63.97
2018-12-25T13:18:48.021Z,63.90
2018-12-25T13:21:16.917Z,64.25
2018-12-25T13:23:45.818Z,64.34
2018-12-25T13:26:14.678Z,64.60
2018-12-25T13:28:43.569Z,63.87
2018-12-25T13:31:12.437Z,64.56
2018-12-25T13:33:41.352Z,64.42
2018-12-25T13:36:10.254Z,64.76
2018-12-25T13:38:39.147Z,64.45
2018-12-25T13:41:08.216Z,63.19
2018-12-25T13:43:37.117Z,65.13
2018-12-25T13:46:07.481Z,65.51
2018-12-25T13:48:35.233Z,65.10
2018-12-25T13:51:04.286Z,65.04
2018-12-25T13:53:33.029Z,65.69
2018-12-25T13:56:01.933Z,65.77
2018-12-25T13:58:30.809Z,65.87
2018-12-25T14:00:59.742Z,66.33
2018-12-25T14:03:28.632Z,66.36
2018-12-25T14:05:57.547Z,66.39
2018-12-25T14:08:26.415Z,66.91
2018-12-25T14:10:55.316Z,65.38
2018-12-25T14:13:24.193Z,66.60
2018-12-25T14:15:53.076Z,66.79
2018-12-25T14:18:21.952Z,66.47
2018-12-25T14:20:50.839Z,67.36
2018-12-25T14:23:19.766Z,67.56
2018-12-25T14:25:48.638Z,67.09
2018-12-25T14:28:17.529Z,67.68
2018-12-25T14:30:46.418Z,67.26
2018-12-25T14:33:15.314Z,67.42
2018-12-25T14:35:44.231Z,67.49
2018-12-25T14:38:13.133Z,67.33
2018-12-25T14:40:42.077Z,67.06
2018-12-25T14:43:10.975Z,67.42
2018-12-25T14:45:39.868Z,67.58
2018-12-25T14:48:08.927Z,67.34
2018-12-25T14:50:37.805Z,67.70
2018-12-25T14:53:06.798Z,67.98
2018-12-25T14:55:35.681Z,67.99
2018-12-25T14:58:04.641Z,67.62
2018-12-25T15:00:33.522Z,67.90
2018-12-25T15:03:02.439Z,67.90
2018-12-25T15:05:31.344Z,68.23
2018-12-25T15:08:00.267Z,68.03
2018-12-25T15:10:29.169Z,67.80
2018-12-25T15:12:58.102Z,68.58
2018-12-25T15:15:26.985Z,68.80
2018-12-25T15:17:55.887Z,67.86
2018-12-25T15:20:24.749Z,68.92
2018-12-25T15:22:53.676Z,68.32
2018-12-25T15:25:22.577Z,68.87
2018-12-25T15:27:51.499Z,68.42
2018-12-25T15:30:20.398Z,67.66
2018-12-25T15:32:49.304Z,68.39
2018-12-25T15:35:18.220Z,68.67
2018-12-25T15:37:47.129Z,68.37
2018-12-25T15:40:16.038Z,68.72
2018-12-25T15:42:44.942Z,68.38
2018-12-25T15:45:13.889Z,68.99
2018-12-25T15:47:42.786Z,69.42
2018-12-25T15:50:11.685Z,68.83
2018-12-25T15:52:40.583Z,68.11
2018-12-25T15:55:09.511Z,67.81
2018-12-25T15:57:38.399Z,68.62
2018-12-25T16:00:13.809Z,68.91
2018-12-25T16:02:42.725Z,68.87
2018-12-25T16:05:11.602Z,69.54
2018-12-25T16:07:40.597Z,69.85
2018-12-25T16:10:09.567Z,69.91
2018-12-25T16:12:38.419Z,69.87
2018-12-25T16:15:07.438Z,69.79
2018-12-25T16:17:36.354Z,69.78
2018-12-25T16:20:08.625Z,69.81
2018-12-25T16:22:37.567Z,69.29
2018-12-25T16:25:06.490Z,69.68
2018-12-25T16:27:35.393Z,69.72
2018-12-25T16:30:05.618Z,69.95
2018-12-25T16:32:34.502Z,68.88
2018-12-25T16:35:03.445Z,69.61
2018-12-25T16:37:32.315Z,69.83
2018-12-25T16:40:01.204Z,69.82
2018-12-25T16:42:30.115Z,69.97
2018-12-25T16:44:58.997Z,70.27
2018-12-25T16:47:27.872Z,70.41
2018-12-25T16:49:56.812Z,70.81
2018-12-25T16:52:25.717Z,70.77
2018-12-25T16:54:54.660Z,70.73
2018-12-25T16:57:23.523Z,71.30
2018-12-25T16:59:52.429Z,71.41
2018-12-25T17:02:21.342Z,71.51
2018-12-25T17:04:50.211Z,71.88
2018-12-25T17:07:19.102Z,72.02
2018-12-25T17:09:47.995Z,72.55
2018-12-25T17:12:16.901Z,72.91
2018-12-25T17:14:45.775Z,73.01
2018-12-25T17:17:14.686Z,73.44
2018-12-25T17:19:43.575Z,73.21
2018-12-25T17:22:12.487Z,73.80
2018-12-25T17:24:41.366Z,73.93
2018-12-25T17:27:10.285Z,74.21
2018-12-25T17:29:39.213Z,74.28
2018-12-25T17:32:08.192Z,74.27
2018-12-25T17:34:37.119Z,74.22
2018-12-25T17:37:06.032Z,74.09
2018-12-25T17:39:34.936Z,74.01
2018-12-25T17:42:03.849Z,74.77
2018-12-25T17:44:32.755Z,74.61
2018-12-25T17:47:01.652Z,74.78
2018-12-25T17:49:30.554Z,74.65
2018-12-25T17:51:59.442Z,75.17
2018-12-25T17:54:28.370Z,74.89
2018-12-25T17:56:57.249Z,75.30
2018-12-25T17:59:26.213Z,75.37
2018-12-25T18:01:55.036Z,75.10
2018-12-25T18:04:23.946Z,74.76
2018-12-25T18:06:52.813Z,75.29
2018-12-25T18:09:21.701Z,75.09
2018-12-25T18:11:50.585Z,74.92
2018-12-25T18:14:19.475Z,75.19
2018-12-25T18:16:48.369Z,75.21
2018-12-25T18:19:17.242Z,75.64
2018-12-25T18:21:46.136Z,75.26
2018-12-25T18:24:19.175Z,75.02
2018-12-25T18:26:44.017Z,75.82
2018-12-25T18:29:12.909Z,75.74
2018-12-25T18:31:41.780Z,75.43
2018-12-25T18:34:10.713Z,76.05
2018-12-25T18:36:39.753Z,76.04
2018-12-25T18:39:08.706Z,76.68
2018-12-25T18:41:37.608Z,76.59
2018-12-25T18:44:06.540Z,76.62
2018-12-25T18:46:35.470Z,76.14
2018-12-25T18:49:04.363Z,76.35
2018-12-25T18:51:33.234Z,75.82
2018-12-25T18:54:02.134Z,75.89
2018-12-25T18:56:31.009Z,76.56
2018-12-25T18:59:00.092Z,76.18
2018-12-25T19:01:29.028Z,76.48
2018-12-25T19:03:57.950Z,76.78
2018-12-25T19:06:26.823Z,76.75
2018-12-25T19:08:55.729Z,76.42
2018-12-25T19:11:24.706Z,76.01
2018-12-25T19:13:53.560Z,76.05
2018-12-25T19:16:22.477Z,75.86
2018-12-25T19:18:51.357Z,75.91
2018-12-25T19:21:20.263Z,75.81
2018-12-25T19:23:56.774Z,75.99
2018-12-25T19:26:25.711Z,76.02
2018-12-25T19:28:54.581Z,74.80
2018-12-25T19:31:23.548Z,75.54
2018-12-25T19:33:52.369Z,75.22
2018-12-25T19:36:21.275Z,75.44
2018-12-25T19:38:50.259Z,75.45
2018-12-25T19:41:19.160Z,75.36
2018-12-25T19:43:48.048Z,73.89
2018-12-25T19:46:16.955Z,75.01
2018-12-25T19:48:45.853Z,75.12
2018-12-25T19:51:14.727Z,75.46
2018-12-25T19:53:43.644Z,75.73
2018-12-25T19:56:12.553Z,75.34
2018-12-25T19:58:41.454Z,75.60
2018-12-25T20:01:10.371Z,75.29
2018-12-25T20:03:50.198Z,75.49
2018-12-25T20:07:09.343Z,75.59
2018-12-25T20:10:23.530Z,73.68
2018-12-25T20:13:28.094Z,74.52
2018-12-25T20:16:27.580Z,74.82
2018-12-25T20:19:14.311Z,74.38
2018-12-25T20:22:18.634Z,74.46
2018-12-25T20:25:29.593Z,73.99
2018-12-25T20:28:23.788Z,73.92
2018-12-25T20:31:30.514Z,73.94
2018-12-25T20:34:23.788Z,74.19
2018-12-25T20:37:46.089Z,74.21
2018-12-25T20:40:47.017Z,74.27
2018-12-25T20:43:48.891Z,74.40
2018-12-25T20:46:57.999Z,74.83
2018-12-25T20:50:19.810Z,74.98
2018-12-25T20:53:37.299Z,75.52
2018-12-25T20:56:52.843Z,74.35
2018-12-25T21:00:05.357Z,75.50
2018-12-25T21:03:12.267Z,75.88
2018-12-25T21:06:27.453Z,76.71
2018-12-25T21:09:36.015Z,76.33
2018-12-25T21:12:51.804Z,76.56
2018-12-25T21:15:53.414Z,75.31
2018-12-25T21:18:56.055Z,76.06
2018-12-25T21:22:03.872Z,76.35
2018-12-25T21:25:09.945Z,76.71
2018-12-25T21:27:37.366Z,76.99
2018-12-25T21:30:08.377Z,77.81
2018-12-25T21:32:41.808Z,77.13
2018-12-25T21:35:22.408Z,77.21
2018-12-25T21:37:51.683Z,75.67
2018-12-25T21:40:21.205Z,76.58
2018-12-25T21:42:50.889Z,76.67
2018-12-25T21:45:19.812Z,76.66
2018-12-25T21:47:48.687Z,76.43
2018-12-25T21:50:17.592Z,76.02
2018-12-25T21:52:46.473Z,76.02
2018-12-25T21:55:18.925Z,76.53
2018-12-25T21:57:44.239Z,76.55
2018-12-25T22:00:16.086Z,76.32
2018-12-25T22:02:44.984Z,76.33
2018-12-25T22:05:13.905Z,76.09
2018-12-25T22:07:42.780Z,74.61
2018-12-25T22:10:11.686Z,75.84
2018-12-25T22:12:40.577Z,75.40
2018-12-25T22:15:09.772Z,75.63
2018-12-25T22:17:38.653Z,76.11
2018-12-25T22:20:41.998Z,76.81
2018-12-25T22:23:10.875Z,76.38
2018-12-25T22:25:41.384Z,76.10
2018-12-25T22:28:10.095Z,76.26
2018-12-25T22:30:39.066Z,76.20
2018-12-25T22:33:08.010Z,76.29
2018-12-25T22:35:36.902Z,75.82
2018-12-25T22:38:05.830Z,75.55
2018-12-25T22:40:34.707Z,75.98
2018-12-25T22:43:03.610Z,75.69
2018-12-25T22:45:32.495Z,75.81
2018-12-25T22:48:01.404Z,75.52
2018-12-25T22:50:30.397Z,75.81
2018-12-25T22:52:59.197Z,75.73
2018-12-25T22:55:35.577Z,75.72
2018-12-25T22:57:57.024Z,75.50
2018-12-25T23:00:25.937Z,75.50
2018-12-25T23:02:54.838Z,75.25
2018-12-25T23:05:23.728Z,75.16
2018-12-25T23:07:52.620Z,75.44
2018-12-25T23:10:21.503Z,75.22
2018-12-25T23:12:50.394Z,74.95
2018-12-25T23:15:19.297Z,75.16
2018-12-25T23:17:48.185Z,75.15
2018-12-25T23:20:17.086Z,75.12
2018-12-25T23:22:45.988Z,74.92
2018-12-25T23:25:14.879Z,74.99
2018-12-25T23:27:43.775Z,74.96
2018-12-25T23:30:12.667Z,75.18
2018-12-25T23:32:41.542Z,75.12
2018-12-25T23:35:10.515Z,75.00
2018-12-25T23:37:39.347Z,75.08
2018-12-25T23:40:08.252Z,74.75
2018-12-25T23:42:37.133Z,74.73
2018-12-25T23:45:06.286Z,75.77
2018-12-25T23:47:35.210Z,75.45
2018-12-25T23:50:04.322Z,75.17
2018-12-25T23:52:33.223Z,75.43
2018-12-25T23:55:02.148Z,75.65
2018-12-25T23:57:31.040Z,75.35
2018-12-25T23:59:59.961Z,76.13
